• Join FlightAware (Why Join?)
  • Login
  • US Flag 
05:20PM EDT


 

Airport Tracker/Info


-or-


 

Live Flight TrackerFlight Track Log ✈ N729JB ✈ 08-Apr-2013 ✈ KJFK - MDSD / SDQ

Flight Track Log - Related Links

Times and Time Zones

All times are in EDT time to prevent confusion due to time zone crossing. See the N729JB flight status page for this flight to view local times or setup timezone preferences in your user account.

Time Position Orientation Groundspeed Altitude Reporting Facility
EDT Latitude Longitude Course Direction KTS MPH feet Rate Location/Type
04:25PM 40.6310 -73.7790 123° Southeast 158 182 700  Level FlightAware
04:25PM 40.6240 -73.7710 139° Southeast 165 190 1,100 1,320 Climbing FlightAware
04:26PM 40.6050 -73.7590 154° Southeast 195 224 1,600 960 Climbing FlightAware
04:26PM 40.5760 -73.7420 156° South 247 284 2,000 1,320 Climbing FlightAware
04:26PM 40.5620 -73.7290 145° Southeast 263 303 2,600 2,820 Climbing FlightAware
04:27PM 40.5430 -73.6940 126° Southeast 275 316 3,900 3,000 Climbing FlightAware
04:27PM 40.5220 -73.6510 123° Southeast 288 331 5,400 3,000 Climbing FlightAware
04:28PM 40.5050 -73.6150 122° Southeast 290 334 6,700 2,700 Climbing FlightAware
04:28PM 40.4820 -73.5660 122° Southeast 309 356 7,900 2,580 Climbing FlightAware
04:29PM 40.4610 -73.5210 122° Southeast 314 361 9,300 2,520 Climbing FlightAware
04:29PM 40.4340 -73.4645 122° Southeast 336 387 10,500 1,620 Climbing FlightAware ADS-B
04:30PM 40.3978 -73.3893 122° Southeast 355 409 11,300 1,500 Climbing FlightAware ADS-B
04:30PM 40.3617 -73.3276 128° Southeast 386 444 12,400 2,160 Climbing FlightAware ADS-B
04:31PM 40.3182 -73.3029 157° South 381 438 13,500 2,220 Climbing FlightAware ADS-B
04:31PM 40.2670 -73.2830 163° South 382 440 14,600 2,160 Climbing FlightAware
04:32PM 40.2389 -73.2722 164° South 385 443 15,200 1,680 Climbing FlightAware ADS-B
04:32PM 40.1900 -73.2530 163° South 394 453 15,900 1,560 Climbing FlightAware
04:32PM 40.1783 -73.2484 163° South 393 452 16,100 2,160 Climbing FlightAware ADS-B
04:33PM 40.1189 -73.2250 163° South 398 458 17,300 1,980 Climbing FlightAware ADS-B
04:33PM 40.0640 -73.2036 163° South 403 464 18,300 1,740 Climbing FlightAware ADS-B
04:34PM 39.9816 -73.1716 163° South 411 473 19,600 1,440 Climbing FlightAware ADS-B
04:35PM 39.9225 -73.1488 164° South 422 486 20,200 1,260 Climbing FlightAware ADS-B
04:35PM 39.8508 -73.1209 163° South 429 494 21,100 1,320 Climbing FlightAware ADS-B
04:36PM 39.7922 -73.0982 163° South 439 505 21,700 1,320 Climbing FlightAware ADS-B
04:37PM 39.7024 -73.0637 164° South 442 509 22,800 1,320 Climbing FlightAware ADS-B
04:37PM 39.5934 -73.0218 163° South 443 510 24,000 1,320 Climbing FlightAware ADS-B
04:38PM 39.5100 -72.9900 164° South 450 518 25,000 1,200 Climbing FlightAware
04:39PM 39.4295 -72.9590 163° South 451 519 25,700 960 Climbing FlightAware ADS-B
04:40PM 39.3324 -72.9221 164° South 461 531 26,400 960 Climbing FlightAware ADS-B
04:40PM 39.2695 -72.8981 164° South 463 533 27,000 1,140 Climbing FlightAware ADS-B
04:41PM 39.2052 -72.8737 164° South 464 534 27,600 900 Climbing FlightAware ADS-B
04:41PM 39.1269 -72.8440 164° South 469 540 28,100 900 Climbing FlightAware ADS-B
04:42PM 39.0467 -72.8137 164° South 472 543 28,800 900 Climbing FlightAware ADS-B
04:42PM 38.9970 -72.7950 164° South 471 542 29,200 1,200 Climbing FlightAware
04:43PM 38.9544 -72.7788 164° South 471 542 29,700 1,380 Climbing FlightAware ADS-B
04:44PM 38.8150 -72.7260 164° South 455 524 31,200 1,080 Climbing FlightAware
04:44PM 38.7332 -72.6958 164° South 467 537 31,700 1,020 Climbing FlightAware ADS-B
04:45PM 38.6316 -72.6579 164° South 463 533 32,700 1,020 Climbing FlightAware ADS-B
04:46PM 38.5666 -72.6338 164° South 463 533 33,100 780 Climbing FlightAware ADS-B
04:46PM 38.4927 -72.6064 164° South 464 534 33,600 780 Climbing FlightAware ADS-B
04:47PM 38.4128 -72.5766 164° South 464 534 34,100 720 Climbing FlightAware ADS-B
04:48PM 38.3452 -72.5516 164° South 465 535 34,500 600 Climbing FlightAware ADS-B
04:48PM 38.2830 -72.5290 164° South 467 537 34,800 360 Climbing FlightAware
04:49PM 38.1845 -72.4925 164° South 465 535 35,000 120 Climbing FlightAware ADS-B
04:50PM 38.1036 -72.4627 164° South 462 532 35,000  Level FlightAware ADS-B
04:50PM 38.0207 -72.4322 164° South 468 539 35,000  Level FlightAware ADS-B
04:51PM 37.9255 -72.3986 164° South 464 534 35,000 -120 Level FlightAware ADS-B
04:52PM 37.8322 -72.3894 164° South 462 532 34,900 -60 Descending New York Center
04:53PM 37.7092 -72.3867 179° South 457 526 34,900  Level New York Center
04:54PM 37.5944 -72.3894 181° South 443 510 35,000  Climbing New York Center
04:55PM 37.4672 -72.3892 180° South 438 504 35,000  Level New York Center
04:56PM 37.3378 -72.3889 180° South 447 514 35,000 -60 Level New York Center
04:57PM 37.2189 -72.3917 181° South 447 514 34,900  Descending New York Center
04:58PM 37.1000 -72.3942 181° South 454 522 35,000  Climbing New York Center
04:59PM 36.9747 -72.3939 180° South 454 522 35,000  Level New York Center
05:00PM 36.8497 -72.3964 181° South 460 529 35,000  Level New York Center
05:01PM 36.7203 -72.3989 181° South 460 529 35,000 180 Level New York Center
05:02PM 36.5992 -72.3986 180° South 460 529 35,400 660 Climbing New York Center
05:03PM 36.4719 -72.3986 180° South 455 524 36,300 660 Climbing New York Center
05:04PM 36.3508 -72.3986 180° South 455 524 36,800 300 Climbing New York Center
05:05PM 36.2258 -72.4008 181° South 455 524 37,000 60 Climbing New York Center
05:06PM 36.1028 -72.4008 180° South 450 518 37,000  Level New York Center
05:07PM 35.9775 -72.4033 181° South 450 518 37,000 -60 Level New York Center
05:08PM 35.8544 -72.4031 180° South 450 518 36,900 -60 Descending New York Center
05:09PM 35.7292 -72.4031 180° South 450 518 36,900  Level New York Center
05:10PM 35.6039 -72.4081 182° South 450 518 37,000  Climbing New York Center
05:11PM 35.4808 -72.4053 179° South 450 518 37,000  Level New York Center
05:12PM 35.3600 -72.4053 180° South 444 511 37,000  Level New York Center
05:13PM 35.2325 -72.4078 181° South 444 511 37,000  Level New York Center
05:14PM 35.1075 -72.4100 181° South 444 511 37,000  Level New York Center
05:15PM 34.9822 -72.4075 179° South 444 511 37,000  Level New York Center
05:16PM 35.0500 -72.4167 175° South 424 488 37,000  Level New York Oceanic (ODAPS)
05:16PM 34.8572 -72.4022 175° South 444 511 37,000  Level New York Center
05:17PM 34.7339 -72.4097 183° South 444 511 37,000  Level New York Center
05:19PM 34.5262 -72.3496 176° South  Level FlightAware Approximate
05:26PM 33.6812 -72.2192 167° South  Level FlightAware Approximate
05:27PM 33.5623 -72.1858 167° South  Level FlightAware Approximate
05:28PM 33.4435 -72.1524 167° South  Level FlightAware Approximate
05:29PM 33.3247 -72.1191 167° South  Level FlightAware Approximate
05:30PM 33.2058 -72.0860 167° South  Level FlightAware Approximate
05:31PM 33.0870 -72.0529 167° South  Level FlightAware Approximate
05:32PM 32.9681 -72.0199 167° South  Level FlightAware Approximate
05:33PM 32.8492 -71.9870 167° South  Level FlightAware Approximate
05:34PM 32.7303 -71.9542 167° South  Level FlightAware Approximate
05:35PM 32.6114 -71.9214 167° South  Level FlightAware Approximate
05:36PM 32.4925 -71.8891 167° South  Level FlightAware Approximate
05:37PM 32.3735 -71.8572 167° South  Level FlightAware Approximate
05:37PM 33.9833 -72.3000 167° South 456 525 37,000  Level New York Oceanic (ODAPS)
05:38PM 32.2544 -71.8254 167° South  Level FlightAware Approximate
05:39PM 32.1353 -71.7937 167° South  Level FlightAware Approximate
05:40PM 32.0162 -71.7624 168° South  Level FlightAware Approximate
05:41PM 31.8969 -71.7325 168° South  Level FlightAware Approximate
05:42PM 31.7775 -71.7026 168° South  Level FlightAware Approximate
05:43PM 31.5053 -71.6398 168° South 456 525 37,000  Level FlightAware Transoceanic
05:44PM 31.3813 -71.6078 168° South 456 525 37,000  Level FlightAware Transoceanic
05:45PM 31.2574 -71.5758 168° South 456 525 37,000  Level FlightAware Transoceanic
05:46PM 31.1334 -71.5439 168° South 456 525 37,000  Level FlightAware Transoceanic
05:47PM 31.0093 -71.5121 168° South 456 525 37,000  Level FlightAware Transoceanic
05:48PM 30.8853 -71.4803 168° South 456 525 37,000  Level FlightAware Transoceanic
05:49PM 30.7613 -71.4487 168° South 456 525 37,000  Level FlightAware Transoceanic
05:50PM 30.6373 -71.4171 168° South 456 525 37,000  Level FlightAware Transoceanic
05:51PM 30.5132 -71.3856 168° South 456 525 37,000  Level FlightAware Transoceanic
05:52PM 30.3892 -71.3542 168° South 456 525 37,000  Level FlightAware Transoceanic
05:53PM 30.2651 -71.3229 168° South 456 525 37,000  Level FlightAware Transoceanic
05:54PM 30.1411 -71.2916 168° South 456 525 37,000  Level FlightAware Transoceanic
05:55PM 30.0170 -71.2605 168° South 456 525 37,000  Level FlightAware Transoceanic
05:56PM 29.8929 -71.2294 168° South 456 525 37,000  Level FlightAware Transoceanic
05:57PM 29.7688 -71.1983 168° South 456 525 37,000  Level FlightAware Transoceanic
05:58PM 29.6447 -71.1674 168° South 456 525 37,000  Level FlightAware Transoceanic
05:59PM 29.5206 -71.1365 168° South 456 525 37,000  Level FlightAware Transoceanic
06:00PM 29.3965 -71.1058 168° South 456 525 37,000  Level FlightAware Transoceanic
06:01PM 29.2724 -71.0750 168° South 456 525 37,000  Level FlightAware Transoceanic
06:02PM 29.1483 -71.0444 168° South 456 525 37,000  Level FlightAware Transoceanic
06:03PM 29.0241 -71.0138 168° South 456 525 37,000  Level FlightAware Transoceanic
06:04PM 28.9000 -70.9833 168° South 456 525 37,000  Level FlightAware Transoceanic
06:05PM 28.7701 -70.9511 168° South 456 525 37,000  Level FlightAware Transoceanic
06:05PM 28.9000 -70.9833 168° South 461 531 37,000  Level New York Oceanic (ODAPS)
06:06PM 28.6402 -70.9190 168° South 456 525 37,000  Level FlightAware Transoceanic
06:07PM 28.5103 -70.8870 168° South 456 525 37,000  Level FlightAware Transoceanic
06:08PM 28.3804 -70.8550 168° South 456 525 37,000  Level FlightAware Transoceanic
06:09PM 28.2504 -70.8232 168° South 456 525 37,000  Level FlightAware Transoceanic
06:10PM 28.1205 -70.7914 168° South 456 525 37,000  Level FlightAware Transoceanic
06:11PM 27.8941 -70.7362 168° South 461 531 37,000  Level FlightAware Transoceanic
06:12PM 27.7684 -70.7056 168° South 461 531 37,000  Level FlightAware Transoceanic
06:13PM 27.6426 -70.6751 168° South 461 531 37,000  Level FlightAware Transoceanic
06:14PM 27.5168 -70.6447 168° South 461 531 37,000  Level FlightAware Transoceanic
06:15PM 27.3911 -70.6143 168° South 461 531 37,000  Level FlightAware Transoceanic
06:16PM 27.2653 -70.5840 168° South 461 531 37,000  Level FlightAware Transoceanic
06:17PM 27.1395 -70.5538 168° South 461 531 37,000  Level FlightAware Transoceanic
06:18PM 27.0137 -70.5236 168° South 461 531 37,000  Level FlightAware Transoceanic
06:19PM 26.8879 -70.4936 168° South 461 531 37,000  Level FlightAware Transoceanic
06:20PM 26.7621 -70.4635 168° South 461 531 37,000  Level FlightAware Transoceanic
06:21PM 26.6362 -70.4336 168° South 461 531 37,000  Level FlightAware Transoceanic
06:22PM 26.5104 -70.4037 168° South 461 531 37,000  Level FlightAware Transoceanic
06:23PM 26.3846 -70.3739 168° South 461 531 37,000  Level FlightAware Transoceanic
06:24PM 26.2587 -70.3441 168° South 461 531 37,000  Level FlightAware Transoceanic
06:25PM 26.1329 -70.3144 168° South 461 531 37,000  Level FlightAware Transoceanic
06:26PM 26.0070 -70.2848 168° South 461 531 37,000  Level FlightAware Transoceanic
06:27PM 25.8812 -70.2552 168° South 461 531 37,000  Level FlightAware Transoceanic
06:28PM 25.7553 -70.2257 168° South 461 531 37,000  Level FlightAware Transoceanic
06:29PM 25.6294 -70.1963 168° South 461 531 37,000  Level FlightAware Transoceanic
06:30PM 25.5036 -70.1669 168° South 461 531 37,000  Level FlightAware Transoceanic
06:30PM 25.4033 -70.1786 176° South 448 516 37,000  Level Miami Center
06:31PM 25.3777 -70.1376 168° South 461 531 37,000  Level FlightAware Transoceanic
06:31PM 25.2703 -70.1469 168° South 461 531 37,000  Level Miami Center
06:32PM 25.2518 -70.1083 168° South 461 531 37,000  Level FlightAware Transoceanic
06:32PM 25.1397 -70.1175 168° South 472 543 37,000  Level Miami Center
06:33PM 25.1259 -70.0791 168° South 461 531 37,000  Level FlightAware Transoceanic
06:33PM 25.0111 -70.0903 169° South 472 543 37,000  Level Miami Center
06:34PM 25.0000 -70.0500 176° South 461 531 37,000  Level FlightAware Transoceanic
06:34PM 24.8808 -70.0722 173° South 472 543 37,000  Level Miami Center
06:35PM 24.8703 -70.0408 176° South 461 531 37,000  Level FlightAware Transoceanic
06:35PM 24.7492 -70.0658 177° South 472 543 37,000  Level Miami Center
06:36PM 24.7405 -70.0317 176° South 461 531 37,000  Level FlightAware Transoceanic
06:36PM 24.6214 -70.0569 176° South 467 537 37,000  Level Miami Center
06:37PM 24.4872 -70.0414 174° South 473 544 37,000  Level Miami Center
06:38PM 24.3594 -70.0325 176° South 479 551 37,000  Level Miami Center
06:39PM 24.2319 -70.0258 177° South 473 544 37,000  Level Miami Center
06:40PM 24.1042 -70.0147 175° South 466 536 37,000  Level Miami Center
06:41PM 23.9742 -70.0036 176° South 466 536 37,000  Level Miami Center
06:42PM 23.8444 -69.9947 176° South 466 536 37,000  Level Miami Center
06:43PM 23.7103 -69.9817 175° South 466 536 37,000  Level Miami Center
06:44PM 23.5828 -69.9728 176° South 466 536 37,100  Climbing Miami Center
06:45PM 23.4508 -69.9642 177° South 466 536 37,000 -60 Descending Miami Center
06:46PM 23.3253 -69.9528 175° South 466 536 37,000  Level Miami Center
06:47PM 23.1953 -69.9417 176° South 466 536 37,000  Level Miami Center
06:48PM 23.0656 -69.9308 176° South 467 537 37,000  Level Miami Center
06:49PM 22.9381 -69.9219 176° South 467 537 37,000  Level Miami Center
06:50PM 22.8125 -69.9150 177° South 462 532 37,000  Level Miami Center
06:51PM 22.6803 -69.8975 173° South 470 541 37,000  Level Miami Center
06:52PM 22.5550 -69.8928 178° South 465 535 37,000  Level Miami Center
06:53PM 22.4272 -69.8817 175° South 465 535 37,000 -240 Level Miami Center
06:54PM 22.2975 -69.8731 176° South 465 535 36,600 -660 Descending Miami Center
06:55PM 22.1656 -69.8597 175° South 465 535 35,700 -840 Descending Miami Center
06:56PM 22.0381 -69.8508 176° South 465 535 35,000 -360 Descending Miami Center
06:57PM 21.9000 -69.8403 176° South 472 543 35,000  Level Miami Center
06:58PM 21.7681 -69.8294 176° South 483 556 35,000  Level Miami Center
06:59PM 21.6633 -69.8217 176° South 483 556 35,000  Level Miami Center
07:00PM 21.5150 -69.8117 176° South 483 556 35,000  Level Miami Center
07:01PM 21.3853 -69.8006 175° South 483 556 35,000  Level Miami Center
07:02PM 21.2494 -69.7922 177° South 483 556 35,000  Level Miami Center
07:03PM 21.1178 -69.7833 176° South 478 550 35,000  Level Miami Center
07:04PM 20.9861 -69.7747 177° South 478 550 35,000  Level Miami Center
07:05PM 20.8522 -69.7639 176° South 483 556 35,000  Level Miami Center
07:06PM 20.7206 -69.7531 176° South 483 556 35,000  Level Miami Center
07:07PM 20.5889 -69.7444 176° South 483 556 35,000  Level Miami Center
07:08PM 20.4594 -69.7356 176° South 483 556 35,000  Level Miami Center
07:09PM 20.3278 -69.7269 176° South 483 556 35,000 -900 Level Miami Center
07:10PM 20.1961 -69.7161 176° South 483 556 33,200 -2,520 Descending Miami Center
07:11PM 20.0622 -69.7075 177° South 478 550 30,000 -2,100 Descending Miami Center
07:12PM 19.9308 -69.7011 177° South 483 556 29,000 -1,020 Descending Miami Center
07:14PM 19.7755 -69.7004 180° South  Level FlightAware Approximate
07:21PM 18.9185 -69.6833 180° South  Level FlightAware Approximate
07:22PM 18.7961 -69.6792 174° South  Level FlightAware Approximate
07:23PM 18.6741 -69.6667 180° South  Level FlightAware Approximate
07:24PM 18.5515 -69.6667 180° South  Level FlightAware Approximate
07:25PM 18.4301 -69.6527 169° South  Level FlightAware Approximate
07:26PM 18.4167 -69.6500 169° South  Level FlightAware Approximate
07:27PM 18.4297 -69.6689 169° South  Level Estimated
07:28PM 18.4297 -69.6689 169° South  Level Estimated
07:29PM 18.4297 -69.6689 169° South  Level Estimated
07:30PM 18.4297 -69.6689 169° South  Level Estimated
07:31PM 18.4297 -69.6689 169° South  Level Estimated
07:32PM 18.4297 -69.6689 169° South  Level Estimated
07:33PM 18.4297 -69.6689 169° South  Level Estimated
07:34PM 18.4297 -69.6689 169° South  Level Estimated
07:35PM 18.4297 -69.6689 169° South  Level Estimated
07:36PM 18.4297 -69.6689 169° South  Level Estimated
07:37PM 18.4297 -69.6689 169° South  Level Estimated
07:38PM 18.4297 -69.6689 169° South  Level Estimated
07:39PM 18.4297 -69.6689 169° South  Level Estimated